createdAt,value
2019-03-01T00:01:01.862Z,4.08
2019-03-01T00:03:33.382Z,4.07
2019-03-01T00:06:22.116Z,4.06
2019-03-01T00:09:21.412Z,4.04
2019-03-01T00:12:12.007Z,4.01
2019-03-01T00:15:10.972Z,3.98
2019-03-01T00:17:44.897Z,3.95
2019-03-01T00:20:37.000Z,3.94
2019-03-01T00:23:16.183Z,3.93
2019-03-01T00:26:18.623Z,3.86
2019-03-01T00:29:04.311Z,3.85
2019-03-01T00:31:43.982Z,3.79
2019-03-01T00:34:26.784Z,3.85
2019-03-01T00:37:09.520Z,3.82
2019-03-01T00:39:45.987Z,3.82
2019-03-01T00:42:48.873Z,3.79
2019-03-01T00:45:19.608Z,3.77
2019-03-01T00:47:50.260Z,3.71
2019-03-01T00:50:20.238Z,3.67
2019-03-01T00:52:51.682Z,3.66
2019-03-01T00:55:22.540Z,3.68
2019-03-01T00:57:53.293Z,3.67
2019-03-01T01:00:36.219Z,3.71
2019-03-01T01:03:07.075Z,3.70
2019-03-01T01:05:37.979Z,3.71
2019-03-01T01:08:08.785Z,3.69
2019-03-01T01:10:39.438Z,3.69
2019-03-01T01:13:10.295Z,3.68
2019-03-01T01:15:41.047Z,3.71
2019-03-01T01:18:11.680Z,3.71
2019-03-01T01:20:41.660Z,3.67
2019-03-01T01:23:12.186Z,3.68
2019-03-01T01:25:42.941Z,3.69
2019-03-01T01:28:13.573Z,3.66
2019-03-01T01:30:44.328Z,3.68
2019-03-01T01:33:15.198Z,3.68
2019-03-01T01:35:45.957Z,3.66
2019-03-01T01:38:16.604Z,3.69
2019-03-01T01:40:47.467Z,3.69
2019-03-01T01:43:18.216Z,3.66
2019-03-01T01:45:48.969Z,3.64
2019-03-01T01:48:19.826Z,3.61
2019-03-01T01:50:50.563Z,3.66
2019-03-01T01:53:22.340Z,3.67
2019-03-01T01:55:53.216Z,3.66
2019-03-01T01:58:23.866Z,3.65
2019-03-01T02:00:54.602Z,3.65
2019-03-01T02:03:25.473Z,3.64
2019-03-01T02:05:56.023Z,3.64
2019-03-01T02:08:25.984Z,3.64
2019-03-01T02:10:56.391Z,3.66
2019-03-01T02:13:26.469Z,3.60
2019-03-01T02:15:56.992Z,3.62
2019-03-01T02:18:27.748Z,3.60
2019-03-01T02:20:58.505Z,3.52
2019-03-01T02:23:29.036Z,3.49
2019-03-01T02:25:59.892Z,3.49
2019-03-01T02:28:30.647Z,3.44
2019-03-01T02:31:04.486Z,3.33
2019-03-01T02:33:35.139Z,3.31
2019-03-01T02:36:05.975Z,3.29
2019-03-01T02:38:36.746Z,3.22
2019-03-01T02:41:07.501Z,3.23
2019-03-01T02:43:38.047Z,3.22
2019-03-01T02:46:08.904Z,3.18
2019-03-01T02:48:39.762Z,3.14
2019-03-01T02:51:10.502Z,3.09
2019-03-01T02:53:42.088Z,2.97
2019-03-01T02:56:12.636Z,2.91
2019-03-01T02:58:43.168Z,2.85
2019-03-01T03:01:14.058Z,2.72
2019-03-01T03:03:44.898Z,2.62
2019-03-01T03:06:23.221Z,2.72
2019-03-01T03:08:53.873Z,2.75
2019-03-01T03:11:24.717Z,2.66
2019-03-01T03:13:55.364Z,2.58
2019-03-01T03:16:26.424Z,2.62
2019-03-01T03:18:56.973Z,2.62
2019-03-01T03:21:27.851Z,2.64
2019-03-01T03:23:58.483Z,2.62
2019-03-01T03:26:29.254Z,2.69
2019-03-01T03:29:00.113Z,2.70
2019-03-01T03:31:30.977Z,2.77
2019-03-01T03:34:01.600Z,2.76
2019-03-01T03:36:31.681Z,2.80
2019-03-01T03:39:02.204Z,2.77
2019-03-01T03:41:32.854Z,2.79
2019-03-01T03:44:03.725Z,2.77
2019-03-01T03:46:34.575Z,2.75
2019-03-01T03:49:05.322Z,2.80
2019-03-01T03:51:35.956Z,2.80
2019-03-01T03:54:07.734Z,2.85
2019-03-01T03:56:38.689Z,2.83
2019-03-01T03:59:09.466Z,2.77
2019-03-01T04:01:40.226Z,2.76
2019-03-01T04:04:10.967Z,2.65
2019-03-01T04:06:41.827Z,2.57
2019-03-01T04:09:12.477Z,2.50
2019-03-01T04:11:43.231Z,2.49
2019-03-01T04:14:13.880Z,2.42
2019-03-01T04:16:44.723Z,2.40
2019-03-01T04:19:15.501Z,2.30
2019-03-01T04:21:46.233Z,2.24
2019-03-01T04:24:17.104Z,2.26
2019-03-01T04:26:47.958Z,2.26
2019-03-01T04:29:18.305Z,2.27
2019-03-01T04:31:49.058Z,2.25
2019-03-01T04:34:19.708Z,2.23
2019-03-01T04:36:50.552Z,2.18
2019-03-01T04:39:21.423Z,2.18
2019-03-01T04:41:52.175Z,2.21
2019-03-01T04:44:22.827Z,2.24
2019-03-01T04:46:53.665Z,2.18
2019-03-01T04:49:24.316Z,2.18
2019-03-01T04:51:55.086Z,2.25
2019-03-01T04:54:26.660Z,2.26
2019-03-01T04:56:57.526Z,2.30
2019-03-01T04:59:28.371Z,2.30
2019-03-01T05:01:59.230Z,2.40
2019-03-01T05:04:29.982Z,2.36
2019-03-01T05:07:00.616Z,2.39
2019-03-01T05:09:31.375Z,2.51
2019-03-01T05:12:02.226Z,2.57
2019-03-01T05:14:32.998Z,2.58
2019-03-01T05:17:03.655Z,2.65
2019-03-01T05:19:34.386Z,2.63
2019-03-01T05:22:05.259Z,2.65
2019-03-01T05:24:35.895Z,2.72
2019-03-01T05:27:05.864Z,2.74
2019-03-01T05:29:36.394Z,2.74
2019-03-01T05:32:07.031Z,2.91
2019-03-01T05:34:37.011Z,2.95
2019-03-01T05:37:07.536Z,3.06
2019-03-01T05:39:38.183Z,3.13
2019-03-01T05:42:09.041Z,3.13
2019-03-01T05:44:39.880Z,3.15
2019-03-01T05:47:10.531Z,3.15
2019-03-01T05:49:40.514Z,3.15
2019-03-01T05:52:11.033Z,3.14
2019-03-01T05:54:42.693Z,3.15
2019-03-01T05:57:13.463Z,3.17
2019-03-01T05:59:44.115Z,3.16
2019-03-01T06:02:26.918Z,3.21
2019-03-01T06:04:59.223Z,3.20
2019-03-01T06:07:49.513Z,3.25
2019-03-01T06:10:26.283Z,3.33
2019-03-01T06:13:16.569Z,3.36
2019-03-01T06:16:11.055Z,3.31
2019-03-01T06:19:01.053Z,3.30
2019-03-01T06:21:55.943Z,3.43
2019-03-01T06:24:46.027Z,3.45
2019-03-01T06:27:51.660Z,3.56
2019-03-01T06:30:51.656Z,3.55
2019-03-01T06:33:39.684Z,3.54
2019-03-01T06:36:27.824Z,3.50
2019-03-01T06:39:17.312Z,3.45
2019-03-01T06:41:53.569Z,3.47
2019-03-01T06:44:30.519Z,3.40
2019-03-01T06:47:25.376Z,3.34
2019-03-01T06:50:03.282Z,3.30
2019-03-01T06:52:33.934Z,3.21
2019-03-01T06:55:07.838Z,3.26
2019-03-01T06:57:38.498Z,3.30
2019-03-01T07:00:11.640Z,3.38
2019-03-01T07:02:43.497Z,3.42
2019-03-01T07:05:14.043Z,3.40
2019-03-01T07:07:43.997Z,3.39
2019-03-01T07:10:14.411Z,3.50
2019-03-01T07:12:45.165Z,3.58
2019-03-01T07:15:15.835Z,3.63
2019-03-01T07:17:46.691Z,3.67
2019-03-01T07:20:17.218Z,3.69
2019-03-01T07:22:47.299Z,3.76
2019-03-01T07:25:17.703Z,3.78
2019-03-01T07:27:47.789Z,3.90
2019-03-01T07:30:18.292Z,3.93
2019-03-01T07:32:48.163Z,4.08
2019-03-01T07:35:18.574Z,4.16
2019-03-01T07:37:48.655Z,4.50
2019-03-01T07:40:19.083Z,4.39
2019-03-01T07:42:48.935Z,4.27
2019-03-01T07:45:19.460Z,4.28
2019-03-01T07:47:50.009Z,4.16
2019-03-01T07:50:20.563Z,4.25
2019-03-01T07:52:51.090Z,4.59
2019-03-01T07:55:24.906Z,4.65
2019-03-01T07:57:54.643Z,4.45
2019-03-01T08:00:25.211Z,4.39
2019-03-01T08:02:55.875Z,4.17
2019-03-01T08:05:26.515Z,4.10
2019-03-01T08:08:02.607Z,4.07
2019-03-01T08:10:29.558Z,4.01
2019-03-01T08:13:00.108Z,3.95
2019-03-01T08:15:30.597Z,4.05
2019-03-01T08:18:04.622Z,4.15
2019-03-01T08:20:33.839Z,4.19
2019-03-01T08:23:04.553Z,4.27
2019-03-01T08:25:35.304Z,4.59
2019-03-01T08:28:05.266Z,4.35
2019-03-01T08:30:35.806Z,4.40
2019-03-01T08:33:07.589Z,4.61
2019-03-01T08:35:37.604Z,4.35
2019-03-01T08:38:14.802Z,4.42
2019-03-01T08:40:46.672Z,4.37
2019-03-01T08:43:17.929Z,4.31
2019-03-01T08:45:47.911Z,4.46
2019-03-01T08:48:18.314Z,4.83
2019-03-01T08:50:48.283Z,4.80
2019-03-01T08:53:18.693Z,4.95
2019-03-01T08:55:52.096Z,5.03
2019-03-01T08:58:22.472Z,4.75
2019-03-01T09:00:59.348Z,4.63
2019-03-01T09:03:27.233Z,4.84
2019-03-01T09:05:57.799Z,4.95
2019-03-01T09:08:27.877Z,4.95
2019-03-01T09:10:58.296Z,4.82
2019-03-01T09:13:28.144Z,4.70
2019-03-01T09:15:59.033Z,4.87
2019-03-01T09:18:46.641Z,5.34
2019-03-01T09:21:17.148Z,5.34
2019-03-01T09:23:47.915Z,4.94
2019-03-01T09:26:19.989Z,4.76
2019-03-01T09:28:51.034Z,5.07
2019-03-01T09:31:21.014Z,5.11
2019-03-01T09:33:53.765Z,4.99
2019-03-01T09:36:27.899Z,4.71
2019-03-01T09:38:58.462Z,4.31
2019-03-01T09:41:29.011Z,4.22
2019-03-01T09:44:02.718Z,4.35
2019-03-01T09:46:31.528Z,4.37
2019-03-01T09:49:01.612Z,4.51
2019-03-01T09:51:32.115Z,4.55
2019-03-01T09:54:02.682Z,4.52
2019-03-01T09:56:32.738Z,4.75
2019-03-01T09:59:03.369Z,4.78
2019-03-01T10:01:33.426Z,4.71
2019-03-01T10:04:03.738Z,4.55
2019-03-01T10:06:38.056Z,4.44
2019-03-01T10:09:09.440Z,4.55
2019-03-01T10:11:39.986Z,4.73
2019-03-01T10:14:09.861Z,4.79
2019-03-01T10:16:40.287Z,4.79
2019-03-01T10:19:10.135Z,4.57
2019-03-01T10:21:40.547Z,4.37
2019-03-01T10:24:11.200Z,4.46
2019-03-01T10:26:49.453Z,4.53
2019-03-01T10:29:21.706Z,4.71
2019-03-01T10:31:52.544Z,4.68
2019-03-01T10:34:23.127Z,4.61
2019-03-01T10:36:53.783Z,4.67
2019-03-01T10:39:24.433Z,4.56
2019-03-01T10:41:54.964Z,4.60
2019-03-01T10:44:24.945Z,4.44
2019-03-01T10:46:55.467Z,4.34
2019-03-01T10:49:26.001Z,4.17
2019-03-01T10:51:55.868Z,4.12
2019-03-01T10:54:27.710Z,3.93
2019-03-01T10:56:59.301Z,3.74
2019-03-01T10:59:30.055Z,3.68
2019-03-01T11:02:00.588Z,3.65
2019-03-01T11:04:30.558Z,3.62
2019-03-01T11:07:01.090Z,3.67
2019-03-01T11:09:31.641Z,3.73
2019-03-01T11:12:01.490Z,3.71
2019-03-01T11:14:32.019Z,3.70
2019-03-01T11:17:02.551Z,3.65
2019-03-01T11:19:32.586Z,3.66
2019-03-01T11:22:03.153Z,3.72
2019-03-01T11:24:33.689Z,3.80
2019-03-01T11:27:12.599Z,3.89
2019-03-01T11:29:35.627Z,4.02
2019-03-01T11:32:06.155Z,4.81
2019-03-01T11:34:36.320Z,5.16
2019-03-01T11:37:06.948Z,4.77
2019-03-01T11:39:36.928Z,4.40
2019-03-01T11:42:07.432Z,4.22
2019-03-01T11:44:37.517Z,3.97
2019-03-01T11:47:07.936Z,3.66
2019-03-01T11:49:37.888Z,3.59
2019-03-01T11:52:08.300Z,3.61
2019-03-01T11:54:38.972Z,3.80
2019-03-01T11:57:08.993Z,3.91
2019-03-01T11:59:39.358Z,4.12
2019-03-01T12:02:10.107Z,4.12
2019-03-01T12:04:40.063Z,4.14
2019-03-01T12:07:10.591Z,4.05
2019-03-01T12:09:40.437Z,3.96
2019-03-01T12:12:10.548Z,3.92
2019-03-01T12:14:40.532Z,3.93
2019-03-01T12:17:10.949Z,3.92
2019-03-01T12:19:40.912Z,3.82
2019-03-01T12:22:17.179Z,3.79
2019-03-01T12:24:43.313Z,3.69
2019-03-01T12:27:13.172Z,3.86
2019-03-01T12:29:43.694Z,4.00
2019-03-01T12:32:13.650Z,3.97
2019-03-01T12:34:44.063Z,3.96
2019-03-01T12:37:14.727Z,3.93
2019-03-01T12:39:44.693Z,3.95
2019-03-01T12:42:15.215Z,4.14
2019-03-01T12:44:45.178Z,4.10
2019-03-01T12:47:15.580Z,4.18
2019-03-01T12:49:46.129Z,4.03
2019-03-01T12:52:16.213Z,3.88
2019-03-01T12:54:46.617Z,3.90
2019-03-01T12:57:17.411Z,3.78
2019-03-01T12:59:47.348Z,3.76
2019-03-01T13:02:17.977Z,3.71
2019-03-01T13:04:49.911Z,3.66
2019-03-01T13:07:19.870Z,3.69
2019-03-01T13:09:49.953Z,3.73
2019-03-01T13:12:22.354Z,3.82
2019-03-01T13:14:52.663Z,3.71
2019-03-01T13:17:22.727Z,3.73
2019-03-01T13:19:53.259Z,3.67
2019-03-01T13:22:24.760Z,3.48
2019-03-01T13:24:58.684Z,3.40
2019-03-01T13:27:29.950Z,3.36
2019-03-01T13:30:02.233Z,3.34
2019-03-01T13:32:33.605Z,3.35
2019-03-01T13:35:07.141Z,3.40
2019-03-01T13:37:37.616Z,3.34
2019-03-01T13:40:09.024Z,3.38
2019-03-01T13:42:39.449Z,3.34
2019-03-01T13:45:11.938Z,3.35
2019-03-01T13:47:44.016Z,3.36
2019-03-01T13:50:19.443Z,3.32
2019-03-01T13:52:50.539Z,3.33
2019-03-01T13:55:23.756Z,3.35
2019-03-01T13:57:54.501Z,3.38
2019-03-01T14:00:25.485Z,3.42
2019-03-01T14:02:56.016Z,3.45
2019-03-01T14:05:26.749Z,3.47
2019-03-01T14:07:57.414Z,3.48
2019-03-01T14:10:29.502Z,3.47
2019-03-01T14:12:59.751Z,3.44
2019-03-01T14:15:30.494Z,3.47
2019-03-01T14:18:02.005Z,3.49
2019-03-01T14:20:32.516Z,3.47
2019-03-01T14:23:03.267Z,3.46
2019-03-01T14:25:34.021Z,3.43
2019-03-01T14:28:05.146Z,3.40
2019-03-01T14:30:36.348Z,3.38
2019-03-01T14:33:06.200Z,3.32
2019-03-01T14:35:36.740Z,3.29
2019-03-01T14:38:08.299Z,3.21
2019-03-01T14:40:38.733Z,3.15
2019-03-01T14:43:09.504Z,3.10
2019-03-01T14:45:41.777Z,3.04
2019-03-01T14:48:12.239Z,2.89
2019-03-01T14:50:42.099Z,2.87
2019-03-01T14:53:12.402Z,2.88
2019-03-01T14:55:44.110Z,2.92
2019-03-01T14:58:24.459Z,2.91
2019-03-01T15:01:13.416Z,2.92
2019-03-01T15:03:44.051Z,2.85
2019-03-01T15:06:15.544Z,2.81
2019-03-01T15:08:46.191Z,2.73
2019-03-01T15:11:16.946Z,2.58
2019-03-01T15:13:47.582Z,2.54
2019-03-01T15:16:17.569Z,2.60
2019-03-01T15:18:48.086Z,2.64
2019-03-01T15:21:18.819Z,2.70
2019-03-01T15:23:49.470Z,2.75
2019-03-01T15:26:23.066Z,2.80
2019-03-01T15:28:55.472Z,2.79
2019-03-01T15:31:26.047Z,2.79
2019-03-01T15:33:56.698Z,2.81
2019-03-01T15:36:27.452Z,2.79
2019-03-01T15:38:57.980Z,2.80
2019-03-01T15:41:28.064Z,2.74
2019-03-01T15:43:58.570Z,2.69
2019-03-01T15:46:31.180Z,2.71
2019-03-01T15:49:02.775Z,2.69
2019-03-01T15:51:34.661Z,2.66
2019-03-01T15:54:05.830Z,2.63
2019-03-01T15:56:39.483Z,2.64
2019-03-01T15:59:10.446Z,2.66
2019-03-01T16:01:43.763Z,2.65
2019-03-01T16:04:14.480Z,2.67
2019-03-01T16:06:44.967Z,2.61
2019-03-01T16:09:14.836Z,2.61
2019-03-01T16:11:45.061Z,2.58
2019-03-01T16:14:15.697Z,2.54
2019-03-01T16:16:49.169Z,2.60
2019-03-01T16:19:18.328Z,2.59
2019-03-01T16:21:48.308Z,2.58
2019-03-01T16:24:18.812Z,2.54
2019-03-01T16:26:48.887Z,2.56
2019-03-01T16:29:19.518Z,2.51
2019-03-01T16:31:50.158Z,2.42
2019-03-01T16:34:20.024Z,2.37
2019-03-01T16:36:52.070Z,2.31
2019-03-01T16:39:23.822Z,2.31
2019-03-01T16:41:54.722Z,2.34
2019-03-01T16:44:24.574Z,2.33
2019-03-01T16:46:55.209Z,2.30
2019-03-01T16:49:27.181Z,2.29
2019-03-01T16:51:57.227Z,2.21
2019-03-01T16:54:27.878Z,2.16
2019-03-01T16:56:57.739Z,2.12
2019-03-01T16:59:28.566Z,2.08
2019-03-01T17:01:59.017Z,2.07
2019-03-01T17:04:29.766Z,2.08
2019-03-01T17:07:00.523Z,2.08
2019-03-01T17:09:31.173Z,2.15
2019-03-01T17:12:01.824Z,2.12
2019-03-01T17:14:34.920Z,2.13
2019-03-01T17:17:03.743Z,2.17
2019-03-01T17:19:34.292Z,2.18
2019-03-01T17:22:04.356Z,2.20
2019-03-01T17:24:34.779Z,2.19
2019-03-01T17:27:05.756Z,2.22
2019-03-01T17:29:39.169Z,2.26
2019-03-01T17:32:08.452Z,2.29
2019-03-01T17:34:38.323Z,2.30
2019-03-01T17:37:08.954Z,2.30
2019-03-01T17:39:39.711Z,2.34
2019-03-01T17:42:09.561Z,2.39
2019-03-01T17:44:41.294Z,2.37
2019-03-01T17:47:12.372Z,2.34
2019-03-01T17:49:42.727Z,2.34
2019-03-01T17:52:13.275Z,2.31
2019-03-01T17:54:43.926Z,2.34
2019-03-01T17:57:13.991Z,2.35
2019-03-01T17:59:48.299Z,2.34
2019-03-01T18:02:19.238Z,2.31
2019-03-01T18:04:49.993Z,2.30
2019-03-01T18:07:23.730Z,2.36
2019-03-01T18:09:55.304Z,2.33
2019-03-01T18:12:25.034Z,2.32
2019-03-01T18:14:56.605Z,2.29
2019-03-01T18:17:27.257Z,2.26
2019-03-01T18:19:58.734Z,2.26
2019-03-01T18:22:29.177Z,2.25
2019-03-01T18:25:00.350Z,2.23
2019-03-01T18:27:30.785Z,2.22
2019-03-01T18:30:00.745Z,2.20
2019-03-01T18:32:31.150Z,2.21
2019-03-01T18:35:02.147Z,2.21
2019-03-01T18:37:35.744Z,2.22
2019-03-01T18:40:13.427Z,2.24
2019-03-01T18:42:42.657Z,2.19
2019-03-01T18:45:17.830Z,2.22
2019-03-01T18:47:48.167Z,2.23
2019-03-01T18:50:32.135Z,2.21
2019-03-01T18:53:04.150Z,2.21
2019-03-01T18:55:34.952Z,2.23
2019-03-01T18:58:05.016Z,2.24
2019-03-01T19:00:46.386Z,2.23
2019-03-01T19:03:17.121Z,2.22
2019-03-01T19:05:50.658Z,2.27
2019-03-01T19:08:20.996Z,2.25
2019-03-01T19:10:54.167Z,2.28
2019-03-01T19:13:34.330Z,2.25
2019-03-01T19:16:13.057Z,2.27
2019-03-01T19:18:44.554Z,2.24
2019-03-01T19:21:17.306Z,2.25
2019-03-01T19:23:47.509Z,2.26
2019-03-01T19:26:18.043Z,2.24
2019-03-01T19:28:48.012Z,2.21
2019-03-01T19:31:21.612Z,2.19
2019-03-01T19:33:50.508Z,2.22
2019-03-01T19:36:20.486Z,2.20
2019-03-01T19:38:50.993Z,2.19
2019-03-01T19:41:22.879Z,2.15
2019-03-01T19:43:57.415Z,2.10
2019-03-01T19:46:26.610Z,2.12
2019-03-01T19:48:57.785Z,2.14
2019-03-01T19:51:28.466Z,2.12
2019-03-01T19:54:01.054Z,2.13
2019-03-01T19:56:30.974Z,2.15
2019-03-01T19:59:01.522Z,2.13
2019-03-01T20:01:33.012Z,2.15
2019-03-01T20:04:03.868Z,2.15
2019-03-01T20:06:33.728Z,2.15
2019-03-01T20:09:05.341Z,2.15
2019-03-01T20:11:35.720Z,2.16
2019-03-01T20:14:06.354Z,2.17
2019-03-01T20:16:36.923Z,2.15
2019-03-01T20:19:07.471Z,2.20
2019-03-01T20:21:37.919Z,2.16
2019-03-01T20:24:07.982Z,2.13
2019-03-01T20:26:38.402Z,2.17
2019-03-01T20:29:08.364Z,2.08
2019-03-01T20:31:40.531Z,2.11
2019-03-01T20:34:10.850Z,2.11
2019-03-01T20:36:41.803Z,2.08
2019-03-01T20:39:15.643Z,2.06
2019-03-01T20:41:46.349Z,2.06
2019-03-01T20:44:18.623Z,2.09
2019-03-01T20:46:48.628Z,2.04
2019-03-01T20:49:18.588Z,2.02
2019-03-01T20:51:49.109Z,2.02
2019-03-01T20:54:21.950Z,2.00
2019-03-01T20:56:51.591Z,1.96
2019-03-01T20:59:23.010Z,2.01
2019-03-01T21:01:54.584Z,1.99
2019-03-01T21:04:25.335Z,1.94
2019-03-01T21:06:55.883Z,1.93
2019-03-01T21:09:26.051Z,1.94
2019-03-01T21:11:57.827Z,1.92
2019-03-01T21:14:28.645Z,1.90
2019-03-01T21:16:59.310Z,1.91
2019-03-01T21:19:29.274Z,1.93
2019-03-01T21:22:01.613Z,1.90
2019-03-01T21:24:32.178Z,1.87
2019-03-01T21:27:02.631Z,1.89
2019-03-01T21:29:32.598Z,1.87
2019-03-01T21:32:03.013Z,1.85
2019-03-01T21:34:34.881Z,1.84
2019-03-01T21:37:05.529Z,1.80
2019-03-01T21:39:35.510Z,1.77
2019-03-01T21:42:05.927Z,1.75
2019-03-01T21:44:35.788Z,1.71
2019-03-01T21:47:06.988Z,1.70
2019-03-01T21:49:38.291Z,1.66
2019-03-01T21:52:08.143Z,1.65
2019-03-01T21:54:38.678Z,1.60
2019-03-01T21:57:08.526Z,1.58
2019-03-01T21:59:39.055Z,1.54
2019-03-01T22:02:09.229Z,1.48
2019-03-01T22:04:39.732Z,1.49
2019-03-01T22:07:09.812Z,1.43
2019-03-01T22:09:40.332Z,1.43
2019-03-01T22:12:10.297Z,1.42
2019-03-01T22:14:40.821Z,1.42
2019-03-01T22:17:13.520Z,1.38
2019-03-01T22:19:42.532Z,1.39
2019-03-01T22:22:13.076Z,1.35
2019-03-01T22:24:42.941Z,1.36
2019-03-01T22:27:13.464Z,1.33
2019-03-01T22:29:47.166Z,1.27
2019-03-01T22:32:16.000Z,1.22
2019-03-01T22:34:45.855Z,1.25
2019-03-01T22:37:16.377Z,1.23
2019-03-01T22:39:48.426Z,1.17
2019-03-01T22:42:19.202Z,1.19
2019-03-01T22:44:49.286Z,1.29
2019-03-01T22:47:19.804Z,1.29
2019-03-01T22:49:49.764Z,1.30
2019-03-01T22:52:20.270Z,1.29
2019-03-01T22:54:50.925Z,1.29
2019-03-01T22:57:22.654Z,1.27
2019-03-01T22:59:52.960Z,1.28
2019-03-01T23:02:24.614Z,1.28
2019-03-01T23:04:55.491Z,1.27
2019-03-01T23:07:26.585Z,1.30
2019-03-01T23:09:57.918Z,1.26
2019-03-01T23:12:28.671Z,1.23
2019-03-01T23:15:02.935Z,1.26
2019-03-01T23:17:31.611Z,1.28
2019-03-01T23:20:02.366Z,1.25
2019-03-01T23:22:33.224Z,1.21
2019-03-01T23:25:04.266Z,1.20
2019-03-01T23:27:34.609Z,1.16
2019-03-01T23:30:07.100Z,1.13
2019-03-01T23:32:37.651Z,1.11
2019-03-01T23:35:08.524Z,1.10
2019-03-01T23:37:39.903Z,1.06
2019-03-01T23:40:10.321Z,1.05
2019-03-01T23:42:40.302Z,1.03
2019-03-01T23:45:13.801Z,0.96
2019-03-01T23:47:43.828Z,0.93
2019-03-01T23:50:13.690Z,0.93
2019-03-01T23:52:44.247Z,0.96
2019-03-01T23:55:15.609Z,0.93
2019-03-01T23:57:46.230Z,0.96
